Time;durP1;ratioP1;P1;durP2;ratioP2;P2;SDS_P1;SDS_P2;PMS_P1;PMS_P2;Temp;Humidity;BMP_temperature;BMP_pressure;BME280_temperature;BME280_humidity;BME280_pressure;Samples;Min_cycle;Max_cycle;Signal;HPM_P1;HPM_P2
2023/01/31 00:01:46;;;;;;;;;;;;;;;2.31;100;102501;;;;-74
2023/01/31 00:06:52;;;;;;;;;;;;;;;2.28;100;102482.9;;;;-72
2023/01/31 00:11:49;;;;;;;;;;;;;;;2.32;100;102481.1;;;;-73
2023/01/31 00:16:51;;;;;;;;;;;;;;;2.37;100;102465.6;;;;-73
2023/01/31 00:19:14;;;;;;;5.7;0.9;;;;;;;;;;;;;-73
2023/01/31 00:21:51;;;;;;;;;;;;;;;2.38;100;102468.1;;;;-72
2023/01/31 00:26:47;;;;;;;;;;;;;;;2.38;100;102456.8;;;;-73
2023/01/31 00:31:46;;;;;;;;;;;;;;;2.39;100;102449.4;;;;-73
2023/01/31 00:36:50;;;;;;;;;;;;;;;2.37;100;102448.3;;;;-73
2023/01/31 00:41:46;;;;;;;;;;;;;;;2.4;100;102434.6;;;;-73
2023/01/31 00:46:54;;;;;;;;;;;;;;;2.44;100;102425.9;;;;-74
2023/01/31 00:49:16;;;;;;;3.9;0.9;;;;;;;;;;;;;-73
2023/01/31 00:51:46;;;;;;;;;;;;;;;2.41;100;102420.4;;;;-73
2023/01/31 00:56:51;;;;;;;;;;;;;;;2.4;100;102400.6;;;;-73
2023/01/31 01:01:49;;;;;;;;;;;;;;;2.39;100;102396.9;;;;-73
2023/01/31 01:06:49;;;;;;;;;;;;;;;2.36;100;102389.1;;;;-73
2023/01/31 01:11:46;;;;;;;;;;;;;;;2.34;100;102382.9;;;;-73
2023/01/31 01:16:48;;;;;;;;;;;;;;;2.34;100;102384.4;;;;-72
2023/01/31 01:19:18;;;;;;;5.8;0.9;;;;;;;;;;;;;-73
2023/01/31 01:21:46;;;;;;;;;;;;;;;2.32;100;102389.1;;;;-73
2023/01/31 01:26:46;;;;;;;;;;;;;;;2.35;100;102391.8;;;;-73
2023/01/31 01:31:49;;;;;;;;;;;;;;;2.37;100;102396.7;;;;-74
2023/01/31 01:36:46;;;;;;;;;;;;;;;2.42;100;102397.4;;;;-72
2023/01/31 01:41:49;;;;;;;;;;;;;;;2.48;100;102402.4;;;;-73
2023/01/31 01:46:48;;;;;;;;;;;;;;;2.57;100;102394.6;;;;-74
2023/01/31 01:49:15;;;;;;;4.1;0.9;;;;;;;;;;;;;-73
2023/01/31 01:51:48;;;;;;;;;;;;;;;2.62;100;102394;;;;-73
2023/01/31 01:56:52;;;;;;;;;;;;;;;2.69;100;102403.2;;;;-73
2023/01/31 02:01:47;;;;;;;;;;;;;;;2.73;100;102400.1;;;;-73
2023/01/31 02:06:50;;;;;;;;;;;;;;;2.78;100;102409;;;;-73
2023/01/31 02:11:49;;;;;;;;;;;;;;;2.82;100;102398.2;;;;-73
2023/01/31 02:16:46;;;;;;;;;;;;;;;2.88;100;102389;;;;-74
2023/01/31 02:19:17;;;;;;;5.4;1.1;;;;;;;;;;;;;-74
2023/01/31 02:22:07;;;;;;;;;;;;;;;2.94;100;102383.5;;;;-72
2023/01/31 02:27:09;;;;;;;;;;;;;;;3.04;100;102378.5;;;;-74
2023/01/31 02:32:03;;;;;;;;;;;;;;;3.37;100;102368.3;;;;-73
2023/01/31 02:36:52;;;;;;;;;;;;;;;3.52;100;102369.7;;;;-73
2023/01/31 02:41:52;;;;;;;;;;;;;;;3.63;100;102365.9;;;;-73
2023/01/31 02:46:52;;;;;;;;;;;;;;;3.73;100;102372.1;;;;-73
2023/01/31 02:49:33;;;;;;;9.1;1.6;;;;;;;;;;;;;-74
2023/01/31 02:52:15;;;;;;;;;;;;;;;3.83;100;102370.1;;;;-73
2023/01/31 02:56:57;;;;;;;;;;;;;;;3.86;100;102362.4;;;;-72
2023/01/31 03:01:52;;;;;;;;;;;;;;;3.88;100;102362.1;;;;-73
2023/01/31 03:06:59;;;;;;;;;;;;;;;3.93;100;102347.7;;;;-73
2023/01/31 03:11:52;;;;;;;;;;;;;;;4;100;102351.7;;;;-73
2023/01/31 03:19:16;;;;;;;10;2.4;;;;;;;;;;;;;-73
2023/01/31 03:21:48;;;;;;;;;;;;;;;4.01;100;102328.4;;;;-73
2023/01/31 03:26:50;;;;;;;;;;;;;;;4.02;100;102323.9;;;;-73
2023/01/31 03:31:51;;;;;;;;;;;;;;;4.01;100;102327.6;;;;-73
2023/01/31 03:36:49;;;;;;;;;;;;;;;3.98;100;102335.3;;;;-73
2023/01/31 03:41:52;;;;;;;;;;;;;;;3.93;100;102315.8;;;;-72
2023/01/31 03:46:48;;;;;;;;;;;;;;;3.95;100;102311.2;;;;-73
2023/01/31 03:49:14;;;;;;;18.1;2.6;;;;;;;;;;;;;-72
2023/01/31 03:51:52;;;;;;;;;;;;;;;3.93;100;102301.5;;;;-73
2023/01/31 03:56:56;;;;;;;;;;;;;;;3.98;100;102307;;;;-73
2023/01/31 04:02:00;;;;;;;;;;;;;;;4.04;100;102305.3;;;;-73
2023/01/31 04:06:58;;;;;;;;;;;;;;;4.09;100;102304;;;;-75
2023/01/31 04:15:37;;;;;;;;;;;;;;;4.18;100;102290.3;;;;-73
2023/01/31 04:19:15;;;;;;;14.9;2.5;;;;;;;;;;;;;-72
2023/01/31 04:20:25;;;;;;;;;;;;;;;4.21;100;102277.3;;;;-73
2023/01/31 04:25:22;;;;;;;;;;;;;;;4.28;100;102280.5;;;;-72
2023/01/31 04:30:22;;;;;;;;;;;;;;;4.33;100;102272.4;;;;-72
2023/01/31 04:35:22;;;;;;;;;;;;;;;4.33;100;102267.1;;;;-73
2023/01/31 04:40:22;;;;;;;;;;;;;;;4.39;100;102263;;;;-72
2023/01/31 04:45:22;;;;;;;;;;;;;;;4.44;100;102272.4;;;;-73
2023/01/31 04:49:13;;;;;;;16.1;2.9;;;;;;;;;;;;;-74
2023/01/31 04:50:22;;;;;;;;;;;;;;;4.47;100;102267.7;;;;-72
2023/01/31 04:55:22;;;;;;;;;;;;;;;4.51;100;102274.9;;;;-73
2023/01/31 05:00:23;;;;;;;;;;;;;;;4.52;100;102266.3;;;;-74
2023/01/31 05:05:23;;;;;;;;;;;;;;;4.56;100;102249.2;;;;-73
2023/01/31 05:10:22;;;;;;;;;;;;;;;4.58;100;102249.1;;;;-73
2023/01/31 05:15:22;;;;;;;;;;;;;;;4.6;100;102248.6;;;;-73
2023/01/31 05:19:13;;;;;;;11.6;2.2;;;;;;;;;;;;;-73
2023/01/31 05:20:23;;;;;;;;;;;;;;;4.61;100;102243.7;;;;-73
2023/01/31 05:25:22;;;;;;;;;;;;;;;4.65;100;102245.5;;;;-74
2023/01/31 05:30:26;;;;;;;;;;;;;;;4.67;100;102240.9;;;;-73
2023/01/31 05:35:22;;;;;;;;;;;;;;;4.72;100;102217.3;;;;-73
2023/01/31 05:40:44;;;;;;;;;;;;;;;4.76;100;102222.2;;;;-73
2023/01/31 05:45:28;;;;;;;;;;;;;;;4.79;100;102206.3;;;;-73
2023/01/31 05:49:21;;;;;;;17.4;2;;;;;;;;;;;;;-73
2023/01/31 05:50:25;;;;;;;;;;;;;;;4.83;100;102198.9;;;;-74
2023/01/31 05:55:22;;;;;;;;;;;;;;;4.87;100;102195.3;;;;-76
2023/01/31 06:00:23;;;;;;;;;;;;;;;4.87;100;102202.3;;;;-73
2023/01/31 06:05:22;;;;;;;;;;;;;;;4.88;100;102197.4;;;;-74
2023/01/31 06:10:22;;;;;;;;;;;;;;;4.93;100;102195.8;;;;-73
2023/01/31 06:15:22;;;;;;;;;;;;;;;4.95;100;102190.4;;;;-73
2023/01/31 06:19:13;;;;;;;12.5;1.8;;;;;;;;;;;;;-73
2023/01/31 06:20:24;;;;;;;;;;;;;;;5;100;102187.4;;;;-73
2023/01/31 06:25:24;;;;;;;;;;;;;;;5.02;100;102175.3;;;;-73
2023/01/31 06:30:23;;;;;;;;;;;;;;;5.04;100;102168;;;;-74
2023/01/31 06:35:22;;;;;;;;;;;;;;;5.04;100;102170;;;;-73
2023/01/31 06:40:29;;;;;;;;;;;;;;;5.04;100;102165;;;;-73
2023/01/31 06:45:23;;;;;;;;;;;;;;;5.07;100;102152.4;;;;-74
2023/01/31 06:49:16;;;;;;;12.2;1.6;;;;;;;;;;;;;-74
2023/01/31 06:50:22;;;;;;;;;;;;;;;5.07;100;102151.2;;;;-73
2023/01/31 06:55:22;;;;;;;;;;;;;;;5.08;100;102159.9;;;;-72
2023/01/31 07:00:23;;;;;;;;;;;;;;;5.08;100;102154.5;;;;-73
2023/01/31 07:05:22;;;;;;;;;;;;;;;5.09;100;102160.1;;;;-74
2023/01/31 07:10:22;;;;;;;;;;;;;;;5.09;100;102145.9;;;;-72
2023/01/31 07:15:23;;;;;;;;;;;;;;;5.07;100;102152.6;;;;-74
2023/01/31 07:19:15;;;;;;;11;1.6;;;;;;;;;;;;;-72
2023/01/31 07:20:25;;;;;;;;;;;;;;;5.09;100;102162.2;;;;-73
2023/01/31 07:25:25;;;;;;;;;;;;;;;5.08;100;102143.6;;;;-73
2023/01/31 07:30:22;;;;;;;;;;;;;;;5.07;100;102114.6;;;;-73
2023/01/31 07:35:22;;;;;;;;;;;;;;;5.06;100;102123.6;;;;-74
2023/01/31 07:40:22;;;;;;;;;;;;;;;5.04;100;102118.8;;;;-73
2023/01/31 07:45:22;;;;;;;;;;;;;;;5.01;100;102122.4;;;;-73
2023/01/31 07:49:14;;;;;;;11.9;2.1;;;;;;;;;;;;;-73
2023/01/31 07:50:22;;;;;;;;;;;;;;;4.97;100;102119;;;;-73
2023/01/31 07:55:25;;;;;;;;;;;;;;;4.97;100;102121.4;;;;-73
2023/01/31 08:05:22;;;;;;;;;;;;;;;4.95;100;102088.3;;;;-74
2023/01/31 08:10:22;;;;;;;;;;;;;;;5;100;102095;;;;-73
2023/01/31 08:15:22;;;;;;;;;;;;;;;5.03;100;102105.6;;;;-72
2023/01/31 08:19:16;;;;;;;10.1;1.6;;;;;;;;;;;;;-73
2023/01/31 08:20:22;;;;;;;;;;;;;;;5.08;100;102095.3;;;;-73
2023/01/31 08:25:29;;;;;;;;;;;;;;;5.15;100;102099;;;;-74
2023/01/31 08:30:22;;;;;;;;;;;;;;;5.19;100;102099.8;;;;-72
2023/01/31 08:35:22;;;;;;;;;;;;;;;5.29;100;102095.8;;;;-72
2023/01/31 08:40:22;;;;;;;;;;;;;;;5.35;100;102099;;;;-73
2023/01/31 08:45:24;;;;;;;;;;;;;;;5.41;100;102085.6;;;;-72
2023/01/31 08:49:15;;;;;;;16.1;2;;;;;;;;;;;;;-72
2023/01/31 08:50:22;;;;;;;;;;;;;;;5.48;100;102066.2;;;;-72
2023/01/31 09:00:23;;;;;;;;;;;;;;;5.55;100;102052.2;;;;-75
2023/01/31 09:05:22;;;;;;;;;;;;;;;5.61;100;102051.4;;;;-73
2023/01/31 09:10:23;;;;;;;;;;;;;;;5.65;100;102041.7;;;;-72
2023/01/31 09:15:22;;;;;;;;;;;;;;;5.7;100;102046.9;;;;-72
2023/01/31 09:19:14;;;;;;;13.1;2.1;;;;;;;;;;;;;-73
2023/01/31 09:20:25;;;;;;;;;;;;;;;5.76;100;102048.9;;;;-73
2023/01/31 09:25:22;;;;;;;;;;;;;;;5.84;100;102041.3;;;;-73
2023/01/31 09:30:25;;;;;;;;;;;;;;;6;100;102038.7;;;;-72
2023/01/31 09:35:22;;;;;;;;;;;;;;;6.18;100;102033.9;;;;-73
2023/01/31 09:40:25;;;;;;;;;;;;;;;6.25;100;102043.9;;;;-72
2023/01/31 09:45:29;;;;;;;;;;;;;;;6.29;100;102042.6;;;;-72
2023/01/31 09:49:21;;;;;;;13.6;2.2;;;;;;;;;;;;;-72
2023/01/31 09:50:26;;;;;;;;;;;;;;;6.31;100;102038.1;;;;-74
2023/01/31 09:55:24;;;;;;;;;;;;;;;6.35;100;102031.7;;;;-72
2023/01/31 10:00:28;;;;;;;;;;;;;;;6.36;100;102025.7;;;;-73
2023/01/31 10:05:31;;;;;;;;;;;;;;;6.4;100;102021.9;;;;-73
2023/01/31 10:10:28;;;;;;;;;;;;;;;6.46;100;102014.2;;;;-73
2023/01/31 10:15:32;;;;;;;;;;;;;;;6.51;100;102017.3;;;;-74
2023/01/31 10:19:15;;;;;;;13.1;2.1;;;;;;;;;;;;;-73
2023/01/31 10:20:24;;;;;;;;;;;;;;;6.61;100;102017.8;;;;-73
2023/01/31 10:25:29;;;;;;;;;;;;;;;6.66;100;102015.1;;;;-72
2023/01/31 10:30:24;;;;;;;;;;;;;;;6.69;100;102030;;;;-73
2023/01/31 10:35:26;;;;;;;;;;;;;;;6.71;100;102036.7;;;;-72
2023/01/31 10:40:25;;;;;;;;;;;;;;;6.74;100;102047.4;;;;-73
2023/01/31 10:45:28;;;;;;;;;;;;;;;6.73;100;102059;;;;-72
2023/01/31 10:49:16;;;;;;;14.2;2.2;;;;;;;;;;;;;-73
2023/01/31 10:50:27;;;;;;;;;;;;;;;6.74;100;102056.5;;;;-73
2023/01/31 10:55:44;;;;;;;;;;;;;;;6.75;100;102052.7;;;;-74
2023/01/31 11:00:25;;;;;;;;;;;;;;;6.77;100;102052.7;;;;-73
2023/01/31 11:05:23;;;;;;;;;;;;;;;6.79;100;102044;;;;-72
2023/01/31 11:10:30;;;;;;;;;;;;;;;6.83;100;102041.8;;;;-73
2023/01/31 11:15:25;;;;;;;;;;;;;;;6.89;100;102030.2;;;;-74
2023/01/31 11:19:21;;;;;;;11.2;2;;;;;;;;;;;;;-72
2023/01/31 11:20:30;;;;;;;;;;;;;;;6.98;100;102025.5;;;;-72
2023/01/31 11:25:25;;;;;;;;;;;;;;;7.01;100;102012.7;;;;-72
2023/01/31 11:30:33;;;;;;;;;;;;;;;7.05;100;102002.6;;;;-72
2023/01/31 11:35:29;;;;;;;;;;;;;;;7.07;100;101987.3;;;;-73
2023/01/31 11:40:29;;;;;;;;;;;;;;;7.1;100;101985.1;;;;-73
2023/01/31 11:45:26;;;;;;;;;;;;;;;7.24;100;101989.2;;;;-73
2023/01/31 11:49:25;;;;;;;8.5;1.9;;;;;;;;;;;;;-72
2023/01/31 11:50:26;;;;;;;;;;;;;;;7.36;100;101987;;;;-74
2023/01/31 11:55:23;;;;;;;;;;;;;;;7.5;100;101971.6;;;;-73
2023/01/31 12:00:31;;;;;;;;;;;;;;;7.6;100;101948.5;;;;-72
2023/01/31 12:05:22;;;;;;;;;;;;;;;7.74;100;101960;;;;-73
2023/01/31 12:10:36;;;;;;;;;;;;;;;7.76;100;101952;;;;-72
2023/01/31 12:15:22;;;;;;;;;;;;;;;7.7;100;101947.6;;;;-72
2023/01/31 12:19:24;;;;;;;9.1;1.7;;;;;;;;;;;;;-72
2023/01/31 12:20:26;;;;;;;;;;;;;;;7.64;100;101950.2;;;;-72
2023/01/31 12:25:27;;;;;;;;;;;;;;;7.66;100;101943.2;;;;-72
2023/01/31 12:30:29;;;;;;;;;;;;;;;7.77;100;101944.4;;;;-73
2023/01/31 12:35:29;;;;;;;;;;;;;;;7.91;100;101941.2;;;;-73
2023/01/31 12:40:32;;;;;;;;;;;;;;;7.97;99.85742;101924;;;;-73
2023/01/31 12:45:32;;;;;;;;;;;;;;;8.03;99.74316;101927.3;;;;-72
2023/01/31 12:49:30;;;;;;;11.7;2.1;;;;;;;;;;;;;-74
2023/01/31 12:50:33;;;;;;;;;;;;;;;8.09;99.60254;101934.4;;;;-74
2023/01/31 12:55:32;;;;;;;;;;;;;;;8.15;99.28711;101922.4;;;;-74
2023/01/31 13:00:31;;;;;;;;;;;;;;;8.21;99.08301;101925;;;;-72
2023/01/31 13:05:27;;;;;;;;;;;;;;;8.32;99.01758;101935.9;;;;-72
2023/01/31 13:10:31;;;;;;;;;;;;;;;8.4;98.68555;101931.9;;;;-73
2023/01/31 13:15:27;;;;;;;;;;;;;;;8.43;98.22363;101934.9;;;;-73
2023/01/31 13:19:22;;;;;;;12.7;2.2;;;;;;;;;;;;;-73
2023/01/31 13:20:29;;;;;;;;;;;;;;;8.44;97.875;101933.6;;;;-73
2023/01/31 13:25:24;;;;;;;;;;;;;;;8.45;97.69922;101946.9;;;;-73
2023/01/31 13:30:27;;;;;;;;;;;;;;;8.41;97.71582;101971.5;;;;-75
2023/01/31 13:35:24;;;;;;;;;;;;;;;8.43;97.63184;101955.3;;;;-73
2023/01/31 13:40:24;;;;;;;;;;;;;;;8.47;97.53906;101962.5;;;;-72
2023/01/31 13:45:33;;;;;;;;;;;;;;;8.48;97.05273;101967.8;;;;-72
2023/01/31 13:49:24;;;;;;;12.3;2.5;;;;;;;;;;;;;-73
2023/01/31 13:50:27;;;;;;;;;;;;;;;8.45;96.95703;101974.2;;;;-72
2023/01/31 13:55:35;;;;;;;;;;;;;;;8.45;96.96973;101982.6;;;;-72
2023/01/31 14:00:33;;;;;;;;;;;;;;;8.4;96.53027;101990.1;;;;-74
2023/01/31 14:05:35;;;;;;;;;;;;;;;8.41;96.22559;101996.6;;;;-73
2023/01/31 14:10:39;;;;;;;;;;;;;;;8.42;96.11621;101995.3;;;;-73
2023/01/31 14:15:33;;;;;;;;;;;;;;;8.39;96.14258;101992.2;;;;-71
2023/01/31 14:19:38;;;;;;;9.1;1.8;;;;;;;;;;;;;-74
2023/01/31 14:20:33;;;;;;;;;;;;;;;8.38;96.4502;101992.6;;;;-73
2023/01/31 14:25:33;;;;;;;;;;;;;;;8.34;96.33008;101990.9;;;;-73
2023/01/31 14:30:46;;;;;;;;;;;;;;;8.29;96.5918;101992.3;;;;-74
2023/01/31 14:35:33;;;;;;;;;;;;;;;8.28;96.15137;101994.1;;;;-72
2023/01/31 14:40:29;;;;;;;;;;;;;;;8.2;96.3877;102017.4;;;;-72
2023/01/31 14:45:30;;;;;;;;;;;;;;;8.08;96.53613;102018.7;;;;-73
2023/01/31 14:49:32;;;;;;;12.6;1.8;;;;;;;;;;;;;-73
2023/01/31 14:50:40;;;;;;;;;;;;;;;8.03;97.07227;102026.6;;;;-73
2023/01/31 14:55:38;;;;;;;;;;;;;;;8;97.16211;102026.5;;;;-73
2023/01/31 15:00:30;;;;;;;;;;;;;;;7.99;97.12695;102028.4;;;;-73
2023/01/31 15:05:28;;;;;;;;;;;;;;;8.02;97.57324;102035;;;;-73
2023/01/31 15:10:33;;;;;;;;;;;;;;;8.02;98.03027;102049.6;;;;-72
2023/01/31 15:15:28;;;;;;;;;;;;;;;7.95;97.49121;102060.1;;;;-73
2023/01/31 15:19:28;;;;;;;10.2;1.9;;;;;;;;;;;;;-72
2023/01/31 15:20:34;;;;;;;;;;;;;;;7.9;97.38086;102062.6;;;;-72
2023/01/31 15:25:38;;;;;;;;;;;;;;;7.87;97.62598;102054.9;;;;-73
2023/01/31 15:30:23;;;;;;;;;;;;;;;7.81;97.22949;102064.5;;;;-74
2023/01/31 15:35:29;;;;;;;;;;;;;;;7.74;96.65723;102064.9;;;;-73
2023/01/31 15:40:24;;;;;;;;;;;;;;;7.68;96.78516;102074.2;;;;-72
2023/01/31 15:45:28;;;;;;;;;;;;;;;7.56;96.81543;102083.8;;;;-73
2023/01/31 15:49:31;;;;;;;10.8;2.2;;;;;;;;;;;;;-72
2023/01/31 15:50:23;;;;;;;;;;;;;;;7.48;97.35449;102094.1;;;;-72
2023/01/31 15:55:22;;;;;;;;;;;;;;;7.4;97.41309;102109.4;;;;-73
2023/01/31 16:00:26;;;;;;;;;;;;;;;7.3;97.44336;102100.3;;;;-74
2023/01/31 16:05:24;;;;;;;;;;;;;;;7.18;97.03613;102116.2;;;;-74
2023/01/31 16:10:22;;;;;;;;;;;;;;;7.09;97.28906;102115.5;;;;-73
2023/01/31 16:15:27;;;;;;;;;;;;;;;6.97;97.29297;102112.7;;;;-73
2023/01/31 16:19:25;;;;;;;10.3;2.2;;;;;;;;;;;;;-75
2023/01/31 16:20:47;;;;;;;;;;;;;;;6.87;97.43652;102111;;;;-74
2023/01/31 16:25:23;;;;;;;;;;;;;;;6.77;97.52148;102106.4;;;;-74
2023/01/31 16:30:28;;;;;;;;;;;;;;;6.69;98.11621;102110.4;;;;-74
2023/01/31 16:35:27;;;;;;;;;;;;;;;6.6;98.67285;102104.5;;;;-74
2023/01/31 16:40:28;;;;;;;;;;;;;;;6.49;97.88574;102101.2;;;;-74
2023/01/31 16:45:35;;;;;;;;;;;;;;;6.4;98.12402;102104.1;;;;-74
2023/01/31 16:49:25;;;;;;;15.6;2.3;;;;;;;;;;;;;-73
2023/01/31 16:50:44;;;;;;;;;;;;;;;6.32;98.48926;102113;;;;-73
2023/01/31 16:55:23;;;;;;;;;;;;;;;6.24;98.2959;102112.4;;;;-74
2023/01/31 17:00:34;;;;;;;;;;;;;;;6.19;98.39453;102124.5;;;;-73
2023/01/31 17:05:23;;;;;;;;;;;;;;;6.11;98.87793;102114.8;;;;-72
2023/01/31 17:10:25;;;;;;;;;;;;;;;6.06;99.25684;102117.9;;;;-73
2023/01/31 17:15:37;;;;;;;;;;;;;;;5.98;99.34961;102120.4;;;;-73
2023/01/31 17:18:19;;;;;;;;;;;;;;;5.96;99.09277;102123;;;;-73
2023/01/31 17:19:27;;;;;;;14.4;2.6;;;;;;;;;;;;;-72
2023/01/31 17:28:20;;;;;;;;;;;;;;;5.8;99.02441;102110.1;;;;-73
2023/01/31 17:33:19;;;;;;;;;;;;;;;5.73;99.13867;102122.8;;;;-73
2023/01/31 17:38:20;;;;;;;;;;;;;;;5.69;98.7627;102121.2;;;;-73
2023/01/31 17:43:24;;;;;;;;;;;;;;;5.64;99.15234;102130.6;;;;-73
2023/01/31 17:48:20;;;;;;;;;;;;;;;5.55;99.2168;102136.7;;;;-73
2023/01/31 17:49:25;;;;;;;12.4;1.9;;;;;;;;;;;;;-73
2023/01/31 17:53:19;;;;;;;;;;;;;;;5.48;99.28906;102135.8;;;;-74
2023/01/31 17:58:21;;;;;;;;;;;;;;;5.43;99.00488;102145.1;;;;-73
2023/01/31 18:03:23;;;;;;;;;;;;;;;5.4;99.19434;102144.5;;;;-73
2023/01/31 18:08:22;;;;;;;;;;;;;;;5.33;99.66699;102144.7;;;;-74
2023/01/31 18:13:19;;;;;;;;;;;;;;;5.25;99.7998;102152.1;;;;-73
2023/01/31 18:18:21;;;;;;;;;;;;;;;5.21;99.47656;102142.5;;;;-74
2023/01/31 18:19:25;;;;;;;13.6;2.2;;;;;;;;;;;;;-72
2023/01/31 18:23:19;;;;;;;;;;;;;;;5.14;99.67871;102141.5;;;;-74
2023/01/31 18:28:19;;;;;;;;;;;;;;;5.1;99.71191;102150.9;;;;-74
2023/01/31 18:33:19;;;;;;;;;;;;;;;5.08;99.79492;102152.5;;;;-74
2023/01/31 18:38:23;;;;;;;;;;;;;;;5.01;99.9082;102156.9;;;;-75
2023/01/31 18:43:19;;;;;;;;;;;;;;;4.96;99.81934;102160.2;;;;-75
2023/01/31 18:48:19;;;;;;;;;;;;;;;4.91;100;102164.9;;;;-73
2023/01/31 18:49:25;;;;;;;15.1;1.9;;;;;;;;;;;;;-74
2023/01/31 18:53:20;;;;;;;;;;;;;;;4.87;100;102165.3;;;;-74
2023/01/31 18:58:19;;;;;;;;;;;;;;;4.83;100;102159;;;;-74
2023/01/31 19:03:23;;;;;;;;;;;;;;;4.84;100;102153.1;;;;-72
2023/01/31 19:08:21;;;;;;;;;;;;;;;4.78;100;102155.3;;;;-73
2023/01/31 19:13:22;;;;;;;;;;;;;;;4.79;100;102154.8;;;;-74
2023/01/31 19:18:29;;;;;;;;;;;;;;;4.75;100;102156.4;;;;-74
2023/01/31 19:19:26;;;;;;;10.8;1.7;;;;;;;;;;;;;-74
2023/01/31 19:23:19;;;;;;;;;;;;;;;4.72;100;102151.4;;;;-74
2023/01/31 19:28:21;;;;;;;;;;;;;;;4.68;100;102144;;;;-74
2023/01/31 19:33:20;;;;;;;;;;;;;;;4.7;99.47852;102143.3;;;;-74
2023/01/31 19:38:28;;;;;;;;;;;;;;;4.66;99.41406;102131;;;;-75
2023/01/31 19:47:25;;;;;;;;;;;;;;;4.59;98.93262;102136.2;;;;-73
2023/01/31 19:49:26;;;;;;;10.2;1.5;;;;;;;;;;;;;-75
2023/01/31 19:52:23;;;;;;;;;;;;;;;4.56;98.88281;102134.7;;;;-75
2023/01/31 19:57:39;;;;;;;;;;;;;;;4.55;98.97852;102132.6;;;;-76
2023/01/31 20:02:34;;;;;;;;;;;;;;;4.5;99.60645;102137.3;;;;-73
2023/01/31 20:12:20;;;;;;;;;;;;;;;4.43;99.73047;102128;;;;-72
2023/01/31 20:17:23;;;;;;;;;;;;;;;4.41;99.76953;102122;;;;-74
2023/01/31 20:19:26;;;;;;;10.3;1.4;;;;;;;;;;;;;-74
2023/01/31 20:22:21;;;;;;;;;;;;;;;4.37;99.80273;102123.2;;;;-74
2023/01/31 20:27:20;;;;;;;;;;;;;;;4.34;99.82031;102119.3;;;;-72
2023/01/31 20:32:37;;;;;;;;;;;;;;;4.3;100;102119.6;;;;-73
2023/01/31 20:37:22;;;;;;;;;;;;;;;4.32;99.75977;102111.5;;;;-73
2023/01/31 20:42:20;;;;;;;;;;;;;;;4.31;99.69238;102112.5;;;;-75
2023/01/31 20:47:19;;;;;;;;;;;;;;;4.32;99.36914;102117.1;;;;-74
2023/01/31 20:49:29;;;;;;;16.3;1.8;;;;;;;;;;;;;-75
2023/01/31 20:52:23;;;;;;;;;;;;;;;4.39;99.03711;102100.6;;;;-75
2023/01/31 20:57:20;;;;;;;;;;;;;;;4.35;99.29102;102092.9;;;;-75
2023/01/31 21:02:20;;;;;;;;;;;;;;;4.37;98.99121;102101.9;;;;-75
2023/01/31 21:07:20;;;;;;;;;;;;;;;4.32;98.94629;102088.9;;;;-75
2023/01/31 21:12:36;;;;;;;;;;;;;;;4.36;98.7832;102093.6;;;;-76
2023/01/31 21:17:23;;;;;;;;;;;;;;;4.3;99.07227;102088.1;;;;-75
2023/01/31 21:19:26;;;;;;;8.6;1.5;;;;;;;;;;;;;-77
2023/01/31 21:22:20;;;;;;;;;;;;;;;4.28;99.08984;102088.5;;;;-75
2023/01/31 21:27:20;;;;;;;;;;;;;;;4.23;99.1748;102078.8;;;;-74
2023/01/31 21:35:53;;;;;;;;;;;;;;;4.25;99.35449;102075.9;;;;-74
2023/01/31 21:40:44;;;;;;;;;;;;;;;4.25;99.15918;102078.7;;;;-75
2023/01/31 21:45:43;;;;;;;;;;;;;;;4.23;99.12109;102085.9;;;;-73
2023/01/31 21:49:26;;;;;;;8.1;1.6;;;;;;;;;;;;;-74
2023/01/31 21:50:43;;;;;;;;;;;;;;;4.2;99.37402;102070.2;;;;-73
2023/01/31 21:55:45;;;;;;;;;;;;;;;4.21;99.21582;102064.8;;;;-75
2023/01/31 22:00:42;;;;;;;;;;;;;;;4.2;99.2334;102059.2;;;;-74
2023/01/31 22:05:41;;;;;;;;;;;;;;;4.21;99.25488;102056.5;;;;-74
2023/01/31 22:10:47;;;;;;;;;;;;;;;4.19;99.14453;102067.6;;;;-73
2023/01/31 22:15:41;;;;;;;;;;;;;;;4.23;99.00391;102072.2;;;;-73
2023/01/31 22:19:29;;;;;;;12.4;1.6;;;;;;;;;;;;;-73
2023/01/31 22:25:42;;;;;;;;;;;;;;;4.16;99.59375;102054.4;;;;-74
2023/01/31 22:30:53;;;;;;;;;;;;;;;4.16;99.54785;102038.6;;;;-74
2023/01/31 22:35:42;;;;;;;;;;;;;;;4.18;99.41406;102047.3;;;;-73
2023/01/31 22:40:44;;;;;;;;;;;;;;;4.22;99.00195;102037.8;;;;-74
2023/01/31 22:45:48;;;;;;;;;;;;;;;4.24;99.08105;102043;;;;-73
2023/01/31 22:49:27;;;;;;;11.4;1.5;;;;;;;;;;;;;-71
2023/01/31 22:50:41;;;;;;;;;;;;;;;4.26;98.91211;102033.4;;;;-73
2023/01/31 22:55:44;;;;;;;;;;;;;;;4.43;98.30957;102034;;;;-74
2023/01/31 23:00:41;;;;;;;;;;;;;;;4.47;98.25488;102024.2;;;;-73
2023/01/31 23:05:42;;;;;;;;;;;;;;;4.52;98.17871;102015.7;;;;-73
2023/01/31 23:10:43;;;;;;;;;;;;;;;4.56;97.97168;102011.5;;;;-73
2023/01/31 23:15:42;;;;;;;;;;;;;;;4.6;98.13184;102016.5;;;;-73
2023/01/31 23:19:27;;;;;;;14.3;1.7;;;;;;;;;;;;;-72
2023/01/31 23:20:46;;;;;;;;;;;;;;;4.64;98.19434;102020.2;;;;-73
2023/01/31 23:25:41;;;;;;;;;;;;;;;4.68;98.10742;102015.8;;;;-73
2023/01/31 23:30:45;;;;;;;;;;;;;;;4.7;98.25195;102004.1;;;;-74
2023/01/31 23:35:41;;;;;;;;;;;;;;;4.71;98.30859;101985.6;;;;-73
2023/01/31 23:40:41;;;;;;;;;;;;;;;4.71;98.15625;101979.5;;;;-73
2023/01/31 23:45:43;;;;;;;;;;;;;;;4.74;97.95605;101980;;;;-73
2023/01/31 23:49:26;;;;;;;11;1.8;;;;;;;;;;;;;-73
2023/01/31 23:50:41;;;;;;;;;;;;;;;4.75;97.84082;101981.9;;;;-73
2023/01/31 23:55:42;;;;;;;;;;;;;;;4.76;97.60449;101972;;;;-74
